sensor_id;sensor_type;location;lat;lon;timestamp;pressure;altitude;pressure_sealevel;temperature;humidity
49947;BME280;35839;48.662;13.300;2022-07-05T03:38:33;97603.00;;;18.32;100.00
49947;BME280;35839;48.662;13.300;2022-07-05T03:40:59;97606.09;;;18.36;100.00
49947;BME280;35839;48.662;13.300;2022-07-05T03:43:25;97603.88;;;18.39;100.00
49947;BME280;35839;48.662;13.300;2022-07-05T03:45:50;97617.03;;;18.26;100.00
49947;BME280;35839;48.662;13.300;2022-07-05T03:48:15;97618.03;;;18.25;100.00
49947;BME280;35839;48.662;13.300;2022-07-05T03:50:41;97603.78;;;18.26;100.00
49947;BME280;35839;48.662;13.300;2022-07-05T03:53:06;97617.03;;;18.26;100.00
49947;BME280;35839;48.662;13.300;2022-07-05T03:55:31;97611.06;;;18.17;100.00
49947;BME280;35839;48.662;13.300;2022-07-05T03:57:57;97620.25;;;17.93;100.00
49947;BME280;35839;48.662;13.300;2022-07-05T04:00:22;97614.72;;;17.88;100.00
49947;BME280;35839;48.662;13.300;2022-07-05T04:02:47;97612.19;;;18.08;100.00
49947;BME280;35839;48.662;13.300;2022-07-05T04:05:13;97610.41;;;18.43;100.00
49947;BME280;35839;48.662;13.300;2022-07-05T04:07:52;97619.53;;;18.34;100.00
49947;BME280;35839;48.662;13.300;2022-07-05T04:10:18;97614.66;;;18.09;100.00
49947;BME280;35839;48.662;13.300;2022-07-05T04:12:44;97619.91;;;18.31;100.00
49947;BME280;35839;48.662;13.300;2022-07-05T04:15:10;97610.09;;;18.25;100.00
49947;BME280;35839;48.662;13.300;2022-07-05T04:17:35;97603.84;;;18.32;100.00
49947;BME280;35839;48.662;13.300;2022-07-05T04:20:01;97612.25;;;18.43;100.00
49947;BME280;35839;48.662;13.300;2022-07-05T04:22:26;97610.81;;;18.40;100.00
49947;BME280;35839;48.662;13.300;2022-07-05T04:24:51;97609.94;;;18.33;100.00
49947;BME280;35839;48.662;13.300;2022-07-05T04:27:35;97606.75;;;17.88;100.00
49947;BME280;35839;48.662;13.300;2022-07-05T04:30:01;97612.31;;;17.93;100.00
49947;BME280;35839;48.662;13.300;2022-07-05T04:32:26;97613.00;;;18.08;100.00
49947;BME280;35839;48.662;13.300;2022-07-05T04:34:51;97618.22;;;17.95;100.00
49947;BME280;35839;48.662;13.300;2022-07-05T04:37:17;97617.09;;;18.04;100.00
49947;BME280;35839;48.662;13.300;2022-07-05T04:39:42;97627.81;;;17.96;100.00
49947;BME280;35839;48.662;13.300;2022-07-05T04:42:08;97629.00;;;17.72;100.00
49947;BME280;35839;48.662;13.300;2022-07-05T04:44:33;97627.41;;;17.99;100.00
49947;BME280;35839;48.662;13.300;2022-07-05T04:46:59;97625.78;;;17.98;100.00
49947;BME280;35839;48.662;13.300;2022-07-05T04:49:24;97633.06;;;18.18;100.00
49947;BME280;35839;48.662;13.300;2022-07-05T04:51:49;97631.03;;;18.20;100.00
49947;BME280;35839;48.662;13.300;2022-07-05T04:54:15;97633.09;;;17.96;100.00
49947;BME280;35839;48.662;13.300;2022-07-05T04:56:40;97636.06;;;18.08;100.00
49947;BME280;35839;48.662;13.300;2022-07-05T04:59:06;97634.09;;;18.17;100.00
49947;BME280;35839;48.662;13.300;2022-07-05T05:01:31;97631.16;;;18.33;100.00
49947;BME280;35839;48.662;13.300;2022-07-05T05:03:56;97633.94;;;18.25;100.00
49947;BME280;35839;48.662;13.300;2022-07-05T05:06:22;97635.19;;;18.29;100.00
49947;BME280;35839;48.662;13.300;2022-07-05T05:08:47;97629.66;;;18.24;100.00
49947;BME280;35839;48.662;13.300;2022-07-05T05:11:12;97638.72;;;18.36;100.00
49947;BME280;35839;48.662;13.300;2022-07-05T05:13:38;97638.19;;;18.19;100.00
49947;BME280;35839;48.662;13.300;2022-07-05T05:16:03;97633.16;;;18.31;100.00
49947;BME280;35839;48.662;13.300;2022-07-05T05:18:29;97622.00;;;18.36;100.00
49947;BME280;35839;48.662;13.300;2022-07-05T05:20:54;97622.72;;;18.51;100.00
49947;BME280;35839;48.662;13.300;2022-07-05T05:23:21;97628.91;;;18.37;100.00
49947;BME280;35839;48.662;13.300;2022-07-05T05:25:48;97628.34;;;18.41;100.00
49947;BME280;35839;48.662;13.300;2022-07-05T05:28:13;97628.03;;;18.58;100.00
49947;BME280;35839;48.662;13.300;2022-07-05T05:30:39;97625.63;;;18.63;100.00
49947;BME280;35839;48.662;13.300;2022-07-05T05:33:04;97629.88;;;18.92;100.00
49947;BME280;35839;48.662;13.300;2022-07-05T05:35:29;97626.09;;;18.73;100.00
49947;BME280;35839;48.662;13.300;2022-07-05T05:37:56;97631.50;;;18.86;100.00
49947;BME280;35839;48.662;13.300;2022-07-05T05:40:23;97624.13;;;18.82;100.00
49947;BME280;35839;48.662;13.300;2022-07-05T05:42:49;97631.00;;;18.76;100.00
49947;BME280;35839;48.662;13.300;2022-07-05T05:45:15;97623.22;;;18.68;100.00
49947;BME280;35839;48.662;13.300;2022-07-05T05:47:49;97618.47;;;18.91;100.00
49947;BME280;35839;48.662;13.300;2022-07-05T05:50:30;97627.31;;;19.05;100.00
49947;BME280;35839;48.662;13.300;2022-07-05T05:52:57;97631.22;;;19.16;100.00
49947;BME280;35839;48.662;13.300;2022-07-05T05:55:23;97631.25;;;19.29;100.00
49947;BME280;35839;48.662;13.300;2022-07-05T05:57:49;97631.84;;;19.25;100.00
49947;BME280;35839;48.662;13.300;2022-07-05T06:00:15;97635.13;;;19.27;100.00
49947;BME280;35839;48.662;13.300;2022-07-05T06:02:42;97632.94;;;19.44;100.00
49947;BME280;35839;48.662;13.300;2022-07-05T06:05:08;97629.88;;;19.40;100.00
49947;BME280;35839;48.662;13.300;2022-07-05T06:07:51;97630.50;;;19.55;100.00
49947;BME280;35839;48.662;13.300;2022-07-05T06:10:22;97631.72;;;19.46;100.00
49947;BME280;35839;48.662;13.300;2022-07-05T06:12:48;97632.16;;;19.56;100.00
49947;BME280;35839;48.662;13.300;2022-07-05T06:15:14;97635.22;;;19.53;100.00
49947;BME280;35839;48.662;13.300;2022-07-05T06:17:39;97633.78;;;19.57;100.00
49947;BME280;35839;48.662;13.300;2022-07-05T06:20:10;97628.44;;;19.51;100.00
49947;BME280;35839;48.662;13.300;2022-07-05T06:22:36;97629.75;;;19.68;100.00
49947;BME280;35839;48.662;13.300;2022-07-05T06:25:02;97634.63;;;19.65;100.00
49947;BME280;35839;48.662;13.300;2022-07-05T06:27:27;97631.38;;;19.69;100.00
49947;BME280;35839;48.662;13.300;2022-07-05T06:29:53;97631.81;;;19.73;100.00
49947;BME280;35839;48.662;13.300;2022-07-05T06:32:18;97638.97;;;19.86;100.00
49947;BME280;35839;48.662;13.300;2022-07-05T06:34:44;97640.63;;;20.13;100.00
49947;BME280;35839;48.662;13.300;2022-07-05T06:37:09;97640.81;;;19.85;100.00
49947;BME280;35839;48.662;13.300;2022-07-05T06:39:34;97646.09;;;19.78;100.00
49947;BME280;35839;48.662;13.300;2022-07-05T06:42:00;97641.25;;;19.89;100.00
49947;BME280;35839;48.662;13.300;2022-07-05T06:44:26;97645.31;;;19.78;100.00
49947;BME280;35839;48.662;13.300;2022-07-05T06:46:51;97644.06;;;19.81;100.00
49947;BME280;35839;48.662;13.300;2022-07-05T06:49:16;97642.34;;;19.40;100.00
49947;BME280;35839;48.662;13.300;2022-07-05T06:51:42;97635.44;;;19.58;100.00
49947;BME280;35839;48.662;13.300;2022-07-05T06:54:07;97632.22;;;19.76;100.00
49947;BME280;35839;48.662;13.300;2022-07-05T06:56:32;97627.44;;;19.45;100.00
49947;BME280;35839;48.662;13.300;2022-07-05T06:58:58;97636.03;;;19.47;100.00
49947;BME280;35839;48.662;13.300;2022-07-05T07:01:23;97639.50;;;19.48;100.00
49947;BME280;35839;48.662;13.300;2022-07-05T07:03:48;97635.06;;;19.68;100.00
49947;BME280;35839;48.662;13.300;2022-07-05T07:06:14;97637.28;;;19.58;100.00
49947;BME280;35839;48.662;13.300;2022-07-05T07:08:40;97638.91;;;19.66;100.00
49947;BME280;35839;48.662;13.300;2022-07-05T07:11:24;97648.56;;;19.80;100.00
49947;BME280;35839;48.662;13.300;2022-07-05T07:13:49;97643.41;;;19.58;100.00
49947;BME280;35839;48.662;13.300;2022-07-05T07:16:15;97644.72;;;19.89;100.00
49947;BME280;35839;48.662;13.300;2022-07-05T07:18:40;97642.00;;;19.69;100.00
49947;BME280;35839;48.662;13.300;2022-07-05T07:21:06;97654.31;;;19.84;100.00
49947;BME280;35839;48.662;13.300;2022-07-05T07:23:31;97663.59;;;19.53;100.00
49947;BME280;35839;48.662;13.300;2022-07-05T07:25:56;97651.25;;;20.07;100.00
49947;BME280;35839;48.662;13.300;2022-07-05T07:28:22;97664.13;;;19.96;100.00
49947;BME280;35839;48.662;13.300;2022-07-05T07:30:47;97662.13;;;20.12;100.00
49947;BME280;35839;48.662;13.300;2022-07-05T07:33:12;97658.63;;;20.58;100.00
49947;BME280;35839;48.662;13.300;2022-07-05T07:35:38;97660.84;;;20.28;100.00
49947;BME280;35839;48.662;13.300;2022-07-05T07:38:03;97659.84;;;20.42;100.00
49947;BME280;35839;48.662;13.300;2022-07-05T07:40:28;97658.16;;;20.88;100.00
49947;BME280;35839;48.662;13.300;2022-07-05T07:42:54;97669.03;;;20.46;100.00
49947;BME280;35839;48.662;13.300;2022-07-05T07:45:19;97662.47;;;20.55;100.00
49947;BME280;35839;48.662;13.300;2022-07-05T07:47:45;97669.47;;;20.63;100.00
49947;BME280;35839;48.662;13.300;2022-07-05T07:50:10;97662.69;;;20.74;100.00
49947;BME280;35839;48.662;13.300;2022-07-05T07:52:36;97664.50;;;20.87;100.00
49947;BME280;35839;48.662;13.300;2022-07-05T07:55:04;97665.13;;;20.89;100.00
49947;BME280;35839;48.662;13.300;2022-07-05T07:57:30;97662.94;;;20.26;100.00
49947;BME280;35839;48.662;13.300;2022-07-05T07:59:55;97659.25;;;20.40;100.00
49947;BME280;35839;48.662;13.300;2022-07-05T08:02:21;97658.63;;;20.51;100.00
49947;BME280;35839;48.662;13.300;2022-07-05T08:04:49;97656.34;;;20.35;100.00
49947;BME280;35839;48.662;13.300;2022-07-05T08:07:15;97658.00;;;20.03;100.00
49947;BME280;35839;48.662;13.300;2022-07-05T08:09:40;97654.31;;;20.63;100.00
49947;BME280;35839;48.662;13.300;2022-07-05T08:12:06;97657.50;;;21.05;100.00
49947;BME280;35839;48.662;13.300;2022-07-05T08:14:32;97655.97;;;21.23;100.00
49947;BME280;35839;48.662;13.300;2022-07-05T08:16:57;97652.22;;;21.82;100.00
49947;BME280;35839;48.662;13.300;2022-07-05T08:19:23;97659.03;;;22.03;100.00
49947;BME280;35839;48.662;13.300;2022-07-05T08:22:08;97649.03;;;21.67;100.00
49947;BME280;35839;48.662;13.300;2022-07-05T08:24:34;97653.13;;;21.63;100.00
49947;BME280;35839;48.662;13.300;2022-07-05T08:27:00;97659.41;;;20.78;100.00
49947;BME280;35839;48.662;13.300;2022-07-05T08:29:25;97654.31;;;20.43;100.00
49947;BME280;35839;48.662;13.300;2022-07-05T08:31:51;97660.16;;;21.05;100.00
49947;BME280;35839;48.662;13.300;2022-07-05T08:34:17;97654.06;;;21.43;100.00
49947;BME280;35839;48.662;13.300;2022-07-05T08:36:45;97653.06;;;22.08;100.00
49947;BME280;35839;48.662;13.300;2022-07-05T08:39:11;97661.75;;;21.97;100.00
49947;BME280;35839;48.662;13.300;2022-07-05T08:41:39;97663.72;;;22.08;100.00
49947;BME280;35839;48.662;13.300;2022-07-05T08:44:05;97659.66;;;22.30;100.00
49947;BME280;35839;48.662;13.300;2022-07-05T08:46:32;97662.78;;;21.96;100.00
49947;BME280;35839;48.662;13.300;2022-07-05T08:49:02;97664.59;;;22.34;100.00
49947;BME280;35839;48.662;13.300;2022-07-05T08:51:33;97668.66;;;22.80;100.00
49947;BME280;35839;48.662;13.300;2022-07-05T08:53:59;97655.50;;;22.60;100.00
49947;BME280;35839;48.662;13.300;2022-07-05T08:56:25;97657.94;;;22.11;100.00
49947;BME280;35839;48.662;13.300;2022-07-05T08:58:50;97658.66;;;22.00;100.00
49947;BME280;35839;48.662;13.300;2022-07-05T09:01:16;97656.84;;;22.25;100.00
49947;BME280;35839;48.662;13.300;2022-07-05T09:03:52;97655.97;;;22.57;100.00
49947;BME280;35839;48.662;13.300;2022-07-05T09:06:19;97650.34;;;22.83;100.00
49947;BME280;35839;48.662;13.300;2022-07-05T09:08:47;97660.88;;;22.35;100.00
49947;BME280;35839;48.662;13.300;2022-07-05T09:11:14;97658.44;;;22.95;100.00
49947;BME280;35839;48.662;13.300;2022-07-05T09:13:45;97658.41;;;22.77;100.00
49947;BME280;35839;48.662;13.300;2022-07-05T09:16:13;97646.88;;;23.20;100.00
49947;BME280;35839;48.662;13.300;2022-07-05T09:18:44;97658.72;;;23.72;100.00
49947;BME280;35839;48.662;13.300;2022-07-05T09:21:24;97657.47;;;23.56;97.76
49947;BME280;35839;48.662;13.300;2022-07-05T09:24:02;97658.88;;;23.77;95.52
49947;BME280;35839;48.662;13.300;2022-07-05T09:26:31;97658.34;;;23.87;94.40
49947;BME280;35839;48.662;13.300;2022-07-05T09:28:57;97650.28;;;24.41;95.42
49947;BME280;35839;48.662;13.300;2022-07-05T09:31:31;97662.47;;;23.53;94.98
49947;BME280;35839;48.662;13.300;2022-07-05T09:34:09;97656.84;;;23.73;91.89
49947;BME280;35839;48.662;13.300;2022-07-05T09:42:21;97667.94;;;24.30;91.03
49947;BME280;35839;48.662;13.300;2022-07-05T09:44:50;97659.47;;;23.80;91.51
49947;BME280;35839;48.662;13.300;2022-07-05T09:47:18;97665.03;;;23.48;89.08
49947;BME280;35839;48.662;13.300;2022-07-05T09:49:46;97664.22;;;23.47;91.93
49947;BME280;35839;48.662;13.300;2022-07-05T09:52:36;97663.78;;;24.81;88.15
49947;BME280;35839;48.662;13.300;2022-07-05T09:55:08;97665.22;;;25.13;87.79
49947;BME280;35839;48.662;13.300;2022-07-05T09:57:36;97663.19;;;24.91;87.29
49947;BME280;35839;48.662;13.300;2022-07-05T10:00:10;97656.31;;;25.48;85.37
49947;BME280;35839;48.662;13.300;2022-07-05T10:02:37;97666.56;;;25.51;83.08
49947;BME280;35839;48.662;13.300;2022-07-05T10:05:16;97661.00;;;24.65;86.35
49947;BME280;35839;48.662;13.300;2022-07-05T10:07:44;97657.75;;;24.74;86.25
49947;BME280;35839;48.662;13.300;2022-07-05T10:10:11;97662.19;;;25.33;84.85
49947;BME280;35839;48.662;13.300;2022-07-05T10:12:37;97661.31;;;25.03;85.88
49947;BME280;35839;48.662;13.300;2022-07-05T10:15:03;97651.69;;;25.31;81.56
49947;BME280;35839;48.662;13.300;2022-07-05T10:17:34;97659.41;;;26.14;81.37
49947;BME280;35839;48.662;13.300;2022-07-05T10:20:02;97659.78;;;25.08;73.57
49947;BME280;35839;48.662;13.300;2022-07-05T10:22:29;97667.84;;;24.37;78.71
49947;BME280;35839;48.662;13.300;2022-07-05T10:24:55;97659.03;;;24.60;79.26
49947;BME280;35839;48.662;13.300;2022-07-05T10:27:26;97651.09;;;25.41;72.10
49947;BME280;35839;48.662;13.300;2022-07-05T10:29:53;97663.59;;;25.93;72.75
49947;BME280;35839;48.662;13.300;2022-07-05T10:32:22;97656.06;;;25.78;70.61
49947;BME280;35839;48.662;13.300;2022-07-05T10:34:49;97653.19;;;26.47;73.31
49947;BME280;35839;48.662;13.300;2022-07-05T10:37:16;97650.13;;;26.55;71.02
49947;BME280;35839;48.662;13.300;2022-07-05T10:39:42;97641.50;;;25.45;73.17
49947;BME280;35839;48.662;13.300;2022-07-05T10:42:07;97651.31;;;24.40;74.67
49947;BME280;35839;48.662;13.300;2022-07-05T10:44:34;97651.97;;;24.00;80.81
49947;BME280;35839;48.662;13.300;2022-07-05T10:47:10;97646.25;;;25.14;76.19
49947;BME280;35839;48.662;13.300;2022-07-05T10:49:37;97634.56;;;25.61;72.41
49947;BME280;35839;48.662;13.300;2022-07-05T10:52:04;97632.38;;;26.37;74.44
49947;BME280;35839;48.662;13.300;2022-07-05T10:54:29;97630.84;;;26.07;75.13
49947;BME280;35839;48.662;13.300;2022-07-05T10:57:20;97627.19;;;26.64;70.95
49947;BME280;35839;48.662;13.300;2022-07-05T11:02:31;97620.09;;;26.41;70.31
49947;BME280;35839;48.662;13.300;2022-07-05T11:04:57;97620.34;;;25.89;67.97
49947;BME280;35839;48.662;13.300;2022-07-05T11:10:23;97621.50;;;27.05;68.84
49947;BME280;35839;48.662;13.300;2022-07-05T11:12:49;97626.91;;;26.66;69.29
49947;BME280;35839;48.662;13.300;2022-07-05T11:15:14;97615.19;;;26.38;67.46
49947;BME280;35839;48.662;13.300;2022-07-05T11:17:40;97618.34;;;26.69;66.72
49947;BME280;35839;48.662;13.300;2022-07-05T11:20:11;97618.06;;;26.48;68.31
49947;BME280;35839;48.662;13.300;2022-07-05T11:23:00;97615.63;;;27.08;66.64
49947;BME280;35839;48.662;13.300;2022-07-05T11:25:28;97609.75;;;27.33;68.21
49947;BME280;35839;48.662;13.300;2022-07-05T11:28:27;97598.78;;;26.90;68.99
49947;BME280;35839;48.662;13.300;2022-07-05T11:31:07;97601.22;;;26.36;68.02
49947;BME280;35839;48.662;13.300;2022-07-05T11:36:07;97605.19;;;27.11;64.96
49947;BME280;35839;48.662;13.300;2022-07-05T11:41:42;97600.38;;;26.91;68.06
49947;BME280;35839;48.662;13.300;2022-07-05T11:44:08;97598.50;;;26.70;69.12
49947;BME280;35839;48.662;13.300;2022-07-05T11:46:33;97596.50;;;27.26;67.28
49947;BME280;35839;48.662;13.300;2022-07-05T11:49:02;97592.88;;;26.16;68.50
49947;BME280;35839;48.662;13.300;2022-07-05T11:51:29;97599.38;;;26.76;67.40
49947;BME280;35839;48.662;13.300;2022-07-05T11:53:55;97591.00;;;26.94;65.88
49947;BME280;35839;48.662;13.300;2022-07-05T11:56:21;97591.53;;;26.35;67.11
49947;BME280;35839;48.662;13.300;2022-07-05T11:58:46;97589.88;;;25.95;65.57
49947;BME280;35839;48.662;13.300;2022-07-05T12:01:12;97589.56;;;25.80;64.47
49947;BME280;35839;48.662;13.300;2022-07-05T12:03:37;97585.06;;;26.14;66.75
49947;BME280;35839;48.662;13.300;2022-07-05T12:06:14;97600.72;;;25.72;68.07
49947;BME280;35839;48.662;13.300;2022-07-05T12:08:41;97602.69;;;25.19;70.63
49947;BME280;35839;48.662;13.300;2022-07-05T12:11:09;97598.81;;;24.86;74.70
49947;BME280;35839;48.662;13.300;2022-07-05T12:13:53;97593.94;;;24.71;73.63
49947;BME280;35839;48.662;13.300;2022-07-05T12:16:19;97599.41;;;24.76;75.30
49947;BME280;35839;48.662;13.300;2022-07-05T12:18:54;97601.84;;;24.43;76.91
49947;BME280;35839;48.662;13.300;2022-07-05T12:21:21;97607.38;;;25.40;73.95
49947;BME280;35839;48.662;13.300;2022-07-05T12:23:49;97592.78;;;25.08;72.56
49947;BME280;35839;48.662;13.300;2022-07-05T12:26:16;97607.00;;;25.94;70.45
49947;BME280;35839;48.662;13.300;2022-07-05T12:28:42;97602.47;;;25.49;70.54
49947;BME280;35839;48.662;13.300;2022-07-05T12:31:18;97609.91;;;25.47;72.65
49947;BME280;35839;48.662;13.300;2022-07-05T12:33:44;97603.38;;;25.14;67.22
49947;BME280;35839;48.662;13.300;2022-07-05T12:36:17;97612.91;;;24.46;63.62
49947;BME280;35839;48.662;13.300;2022-07-05T12:38:43;97611.16;;;24.05;64.01
49947;BME280;35839;48.662;13.300;2022-07-05T12:41:09;97611.84;;;24.24;64.29
49947;BME280;35839;48.662;13.300;2022-07-05T12:43:52;97603.59;;;24.37;59.27
49947;BME280;35839;48.662;13.300;2022-07-05T12:46:18;97600.94;;;24.25;59.54
49947;BME280;35839;48.662;13.300;2022-07-05T12:48:43;97606.16;;;24.20;59.67
49947;BME280;35839;48.662;13.300;2022-07-05T12:51:10;97609.22;;;24.47;57.71
49947;BME280;35839;48.662;13.300;2022-07-05T12:53:47;97605.06;;;24.92;56.85
49947;BME280;35839;48.662;13.300;2022-07-05T12:56:31;97597.09;;;25.20;56.38
49947;BME280;35839;48.662;13.300;2022-07-05T12:59:15;97596.50;;;25.76;55.06
49947;BME280;35839;48.662;13.300;2022-07-05T13:01:42;97604.47;;;25.42;60.80
49947;BME280;35839;48.662;13.300;2022-07-05T13:04:13;97607.41;;;26.03;58.21
49947;BME280;35839;48.662;13.300;2022-07-05T13:06:53;97606.25;;;26.88;60.65
49947;BME280;35839;48.662;13.300;2022-07-05T13:12:20;97608.91;;;26.66;57.74
49947;BME280;35839;48.662;13.300;2022-07-05T13:14:53;97593.75;;;27.75;55.53
49947;BME280;35839;48.662;13.300;2022-07-05T13:17:22;97602.66;;;28.46;50.91
49947;BME280;35839;48.662;13.300;2022-07-05T13:19:50;97601.44;;;28.21;52.05
49947;BME280;35839;48.662;13.300;2022-07-05T13:22:16;97608.78;;;27.71;52.87
49947;BME280;35839;48.662;13.300;2022-07-05T13:24:42;97598.47;;;29.18;49.49
49947;BME280;35839;48.662;13.300;2022-07-05T13:27:09;97599.88;;;29.26;49.93
49947;BME280;35839;48.662;13.300;2022-07-05T13:29:35;97603.84;;;29.08;43.69
49947;BME280;35839;48.662;13.300;2022-07-05T13:32:00;97597.00;;;29.78;45.93
49947;BME280;35839;48.662;13.300;2022-07-05T13:34:26;97603.19;;;29.69;46.74
49947;BME280;35839;48.662;13.300;2022-07-05T13:36:59;97593.25;;;30.31;44.01
49947;BME280;35839;48.662;13.300;2022-07-05T13:39:26;97594.84;;;30.27;46.17
49947;BME280;35839;48.662;13.300;2022-07-05T13:41:53;97587.00;;;30.25;45.66
49947;BME280;35839;48.662;13.300;2022-07-05T13:44:19;97593.09;;;30.82;44.85
49947;BME280;35839;48.662;13.300;2022-07-05T13:46:46;97592.28;;;30.76;43.48
49947;BME280;35839;48.662;13.300;2022-07-05T13:49:11;97577.81;;;30.36;42.13
49947;BME280;35839;48.662;13.300;2022-07-05T13:51:37;97581.03;;;31.24;45.03
49947;BME280;35839;48.662;13.300;2022-07-05T13:54:03;97573.25;;;31.12;42.05
49947;BME280;35839;48.662;13.300;2022-07-05T13:56:28;97584.66;;;31.59;39.39
49947;BME280;35839;48.662;13.300;2022-07-05T13:58:54;97588.50;;;31.47;39.51
49947;BME280;35839;48.662;13.300;2022-07-05T14:01:20;97580.34;;;31.53;44.70
49947;BME280;35839;48.662;13.300;2022-07-05T14:03:51;97578.69;;;32.25;40.44
49947;BME280;35839;48.662;13.300;2022-07-05T14:06:17;97587.00;;;31.70;39.55
49947;BME280;35839;48.662;13.300;2022-07-05T14:08:42;97584.34;;;32.00;39.25
49947;BME280;35839;48.662;13.300;2022-07-05T14:11:08;97582.38;;;32.10;39.17
49947;BME280;35839;48.662;13.300;2022-07-05T14:13:35;97581.03;;;31.19;38.63
49947;BME280;35839;48.662;13.300;2022-07-05T14:16:00;97572.75;;;31.55;39.20
49947;BME280;35839;48.662;13.300;2022-07-05T14:18:26;97573.34;;;32.44;37.78
49947;BME280;35839;48.662;13.300;2022-07-05T14:20:51;97569.91;;;32.87;35.14
49947;BME280;35839;48.662;13.300;2022-07-05T14:23:17;97561.34;;;33.23;38.30
49947;BME280;35839;48.662;13.300;2022-07-05T14:25:43;97574.84;;;32.31;35.58
49947;BME280;35839;48.662;13.300;2022-07-05T14:28:08;97562.72;;;32.96;39.74
49947;BME280;35839;48.662;13.300;2022-07-05T14:30:38;97567.72;;;32.65;35.93
49947;BME280;35839;48.662;13.300;2022-07-05T14:33:04;97564.72;;;33.52;32.36
49947;BME280;35839;48.662;13.300;2022-07-05T14:35:30;97561.19;;;32.90;33.00
49947;BME280;35839;48.662;13.300;2022-07-05T14:37:57;97563.28;;;32.50;34.23
49947;BME280;35839;48.662;13.300;2022-07-05T14:40:22;97562.50;;;32.20;37.94
49947;BME280;35839;48.662;13.300;2022-07-05T14:42:54;97551.91;;;32.48;33.98
49947;BME280;35839;48.662;13.300;2022-07-05T14:45:20;97568.50;;;32.12;36.15
49947;BME280;35839;48.662;13.300;2022-07-05T14:47:46;97562.28;;;32.11;36.53
49947;BME280;35839;48.662;13.300;2022-07-05T14:50:12;97563.94;;;30.74;35.91
49947;BME280;35839;48.662;13.300;2022-07-05T14:52:38;97560.47;;;31.23;36.31
49947;BME280;35839;48.662;13.300;2022-07-05T14:55:04;97554.78;;;32.62;36.83
49947;BME280;35839;48.662;13.300;2022-07-05T14:57:29;97571.31;;;32.60;35.89
49947;BME280;35839;48.662;13.300;2022-07-05T14:59:55;97568.03;;;32.34;36.29
49947;BME280;35839;48.662;13.300;2022-07-05T15:02:20;97551.41;;;32.17;40.23
49947;BME280;35839;48.662;13.300;2022-07-05T15:04:46;97552.59;;;33.26;36.98
49947;BME280;35839;48.662;13.300;2022-07-05T15:07:11;97548.53;;;33.80;37.00
49947;BME280;35839;48.662;13.300;2022-07-05T15:09:36;97549.03;;;33.82;32.95
49947;BME280;35839;48.662;13.300;2022-07-05T15:12:02;97549.22;;;31.89;33.06
49947;BME280;35839;48.662;13.300;2022-07-05T15:14:28;97550.00;;;31.90;32.86
49947;BME280;35839;48.662;13.300;2022-07-05T15:16:54;97545.75;;;33.47;32.57
49947;BME280;35839;48.662;13.300;2022-07-05T15:19:22;97542.47;;;32.45;32.59
49947;BME280;35839;48.662;13.300;2022-07-05T15:21:49;97531.28;;;32.76;32.88
49947;BME280;35839;48.662;13.300;2022-07-05T15:24:15;97544.94;;;34.45;31.87
49947;BME280;35839;48.662;13.300;2022-07-05T15:26:40;97543.53;;;35.03;30.16
49947;BME280;35839;48.662;13.300;2022-07-05T15:29:08;97534.16;;;35.09;33.09
49947;BME280;35839;48.662;13.300;2022-07-05T15:31:35;97540.75;;;34.80;30.31
49947;BME280;35839;48.662;13.300;2022-07-05T15:34:02;97545.56;;;33.95;31.37
49947;BME280;35839;48.662;13.300;2022-07-05T15:36:27;97545.03;;;31.73;30.51
49947;BME280;35839;48.662;13.300;2022-07-05T15:38:58;97532.66;;;31.91;35.14
49947;BME280;35839;48.662;13.300;2022-07-05T15:41:23;97531.66;;;31.82;32.05
49947;BME280;35839;48.662;13.300;2022-07-05T15:43:49;97524.84;;;32.91;32.72
49947;BME280;35839;48.662;13.300;2022-07-05T15:46:14;97526.28;;;33.07;31.85
49947;BME280;35839;48.662;13.300;2022-07-05T15:48:40;97525.25;;;32.79;30.32
49947;BME280;35839;48.662;13.300;2022-07-05T15:51:06;97523.31;;;34.40;29.78
49947;BME280;35839;48.662;13.300;2022-07-05T15:53:31;97526.16;;;35.27;29.09
49947;BME280;35839;48.662;13.300;2022-07-05T15:55:59;97535.00;;;35.69;28.73
49947;BME280;35839;48.662;13.300;2022-07-05T15:58:28;97527.78;;;33.70;30.15
49947;BME280;35839;48.662;13.300;2022-07-05T16:00:54;97518.56;;;33.71;30.30
49947;BME280;35839;48.662;13.300;2022-07-05T16:03:19;97529.13;;;31.96;32.38
49947;BME280;35839;48.662;13.300;2022-07-05T16:05:45;97513.16;;;31.94;32.54
49947;BME280;35839;48.662;13.300;2022-07-05T16:08:10;97525.69;;;30.20;36.74
49947;BME280;35839;48.662;13.300;2022-07-05T16:10:35;97514.66;;;30.07;36.68
49947;BME280;35839;48.662;13.300;2022-07-05T16:13:01;97513.88;;;31.36;38.36
49947;BME280;35839;48.662;13.300;2022-07-05T16:15:26;97510.72;;;31.92;34.33
49947;BME280;35839;48.662;13.300;2022-07-05T16:18:13;97515.22;;;32.80;32.27
49947;BME280;35839;48.662;13.300;2022-07-05T16:20:41;97517.63;;;32.09;35.46
49947;BME280;35839;48.662;13.300;2022-07-05T16:23:07;97516.09;;;31.29;38.17
49947;BME280;35839;48.662;13.300;2022-07-05T16:25:32;97520.19;;;30.66;37.12
49947;BME280;35839;48.662;13.300;2022-07-05T16:27:57;97513.84;;;30.06;39.96
49947;BME280;35839;48.662;13.300;2022-07-05T16:30:23;97511.38;;;30.20;38.92
49947;BME280;35839;48.662;13.300;2022-07-05T16:32:49;97512.00;;;29.76;40.17
49947;BME280;35839;48.662;13.300;2022-07-05T16:35:14;97515.44;;;29.20;45.52
49947;BME280;35839;48.662;13.300;2022-07-05T16:37:40;97514.34;;;29.16;45.67
49947;BME280;35839;48.662;13.300;2022-07-05T16:40:06;97513.19;;;29.02;46.17
49947;BME280;35839;48.662;13.300;2022-07-05T16:42:31;97519.16;;;27.93;49.69
49947;BME280;35839;48.662;13.300;2022-07-05T16:44:57;97509.84;;;30.84;42.50